EPKKEPPO

Guest
Details From EPKK - BALICE
To EPPO - LAWICA
Flight Number -
Tags decoded
Created
Modified
Stats Distance 187 nm / 347 km
Max Altitude 0 ft / 0 m
Waypoints 4
Social Downloads 0
Likes 0
Share VATSIM

Download

Looking for another format? Having issues loading an existing format? Contact us
Advertisement - Login to hide

Notes

Requested: EPKK BALOS R236 CZE EPPO Unmatched points: R236

Route

EPKK BALOS CZE EPPO

ID Type Via Altitude (ft/m) Position (lat/lon) Dist (leg/tot) Name
O EPKK APT - 0 / 0 50.07782 / 19.78550 - / 0 nm BALICE
BALOS FIX - 0 / 0 50.27556 / 19.65833 12 / 12 nm
CZE NDB - 0 / 0 52.13636 / 16.72883 156 / 169 nm CZEMPIN NDB
O EPPO APT - 0 / 0 52.42157 / 16.82355 17 / 187 nm LAWICA

Altitude Profile

Advertisement - Login to hide

Weather


0- 5 10 15 20 25 30 35+ Temperature / °C

Clouds and Precipitation
Forecast for 2018-08-18 18:00 UTC. Updated 2 hours ago

Ground ~20,000 ft ~40,000 ft Winds

EPKK

Details ICAO EPKK (KRK)
Name Saint John Paul II Krakow-Balice
Region Poland
Timezone Europe/Warsaw (UTC+2.0)
Stats Elevation 791 ft / 241 m (AMSL)
Location 50.077800° 19.785500°
Runways 1
Magnetic Variation 5.285° E

METAR

EPKK 181730Z 32003KT 290V010 9999 FEW050 24/18 Q1019

Decode

TAF

TAF EPKK 181430Z 1815/1915 32005KT 9999 SCT040 TEMPO 1815/1818 VRB15G25KT TSRA BKN030CB TEMPO 1902/1905 2500 BR TEMPO 1912/1915 BKN040TCU

Decode

Departure Runways

ID Width Length Bearing (true/mag) Surface Threshold Overrun Markings Lighting
07 197 ft / 60 m 8,374 ft / 2,552 m 77.75° / 72.46° CONCRETE 0 ft / 0 m 0 ft / 0 m PREC-APP CENTERLINE EDGE THRESHOLD SALS REIL-OMNI
25 197 ft / 60 m 8,374 ft / 2,552 m 257.77° / 252.48° CONCRETE 778 ft / 237 m 0 ft / 0 m PREC-APP CENTERLINE EDGE THRESHOLD ALSF-I REIL-OMNI

EPPO

Details ICAO EPPO (POZ)
Name LAWICA
Region Poland
Timezone Europe/Warsaw (UTC+2.0)
Stats Elevation 308 ft / 94 m (AMSL)
Location 52.421600° 16.823600°
Runways 1
Magnetic Variation 4.825° E

METAR

EPPO 181730Z 35004KT CAVOK 26/14 Q1019

Decode

TAF

TAF EPPO 181130Z 1812/1912 35012KT CAVOK TEMPO 1812/1817 SCT050CB BECMG 1822/1901 VRB02KT

Decode

Destination Runways

ID Width Length Bearing (true/mag) Surface Threshold Overrun Markings Lighting
11 164 ft / 50 m 8,153 ft / 2,485 m 107.57° / 102.75° ASPHALT 0 ft / 0 m 0 ft / 0 m PREC-APP EDGE THRESHOLD SALS
29 164 ft / 50 m 8,153 ft / 2,485 m 287.59° / 282.77° ASPHALT 0 ft / 0 m 0 ft / 0 m PREC-APP EDGE THRESHOLD ALSF-I

Approach Navaids

Runway Type Ident Frequency Range Bearing (true/mag) Slope Elevation
29 DME POZ 110.30 MHz 18 nm / 33 km - - 331 ft / 101 m (AMSL)
29 LOC-ILS POZ 110.30 MHz 18 nm / 33 km 287.57° / 282.74 ° - 308 ft / 94 m (AMSL)
29 GS POZ 110.30 MHz 10 nm / 19 km 288.16° / 283.34 ° 3.00° 308 ft / 94 m (AMSL)
29 OM OM - - 287.58° / 282.76 ° - 308 ft / 94 m (AMSL)
29 MM MM - - 287.58° / 282.76 ° - 308 ft / 94 m (AMSL)

Popular Alternatives